createdAt,value
2022-11-01T00:00:24.188Z,18.30
2022-11-01T00:03:27.189Z,19.40
2022-11-01T00:06:29.900Z,22.30
2022-11-01T00:09:33.544Z,20.15
2022-11-01T00:12:37.457Z,22.33
2022-11-01T00:15:40.493Z,17.70
2022-11-01T00:18:44.374Z,17.10
2022-11-01T00:21:47.420Z,15.65
2022-11-01T00:24:51.441Z,20.92
2022-11-01T00:27:57.140Z,18.92
2022-11-01T00:31:00.358Z,25.83
2022-11-01T00:34:05.792Z,17.42
2022-11-01T00:40:11.933Z,17.98
2022-11-01T00:43:14.911Z,13.98
2022-11-01T00:46:18.227Z,17.77
2022-11-01T00:49:21.003Z,15.75
2022-11-01T00:52:24.013Z,12.70
2022-11-01T00:55:26.735Z,15.23
2022-11-01T00:58:30.917Z,13.32
2022-11-01T01:01:33.848Z,14.68
2022-11-01T01:04:43.322Z,16.23
2022-11-01T01:07:46.090Z,16.77
2022-11-01T01:10:50.118Z,14.60
2022-11-01T01:13:52.729Z,15.65
2022-11-01T01:16:55.958Z,12.45
2022-11-01T01:19:58.736Z,13.95
2022-11-01T01:23:01.774Z,13.88
2022-11-01T01:26:09.102Z,14.10
2022-11-01T01:29:12.167Z,13.62
2022-11-01T01:32:17.025Z,13.38
2022-11-01T01:38:22.848Z,14.93
2022-11-01T01:41:44.792Z,13.88
2022-11-01T01:44:50.115Z,14.52
2022-11-01T01:47:54.714Z,11.57
2022-11-01T01:51:02.159Z,15.87
2022-11-01T01:54:05.427Z,12.23
2022-11-01T01:57:08.823Z,13.32
2022-11-01T02:00:12.842Z,11.80
2022-11-01T02:03:16.203Z,11.77
2022-11-01T02:06:21.384Z,12.30
2022-11-01T02:09:28.105Z,11.10
2022-11-01T02:12:36.582Z,12.15
2022-11-01T02:15:48.084Z,11.38
2022-11-01T02:19:03.495Z,11.52
2022-11-01T02:22:31.140Z,10.63
2022-11-01T02:26:23.819Z,13.82
2022-11-01T02:30:18.572Z,10.48
2022-11-01T02:33:28.748Z,13.62
2022-11-01T02:36:35.709Z,11.52
2022-11-01T02:39:41.590Z,15.75
2022-11-01T02:42:53.864Z,13.57
2022-11-01T02:45:57.587Z,12.37
2022-11-01T02:49:00.372Z,11.05
2022-11-01T02:52:04.530Z,10.55
2022-11-01T02:55:31.818Z,11.38
2022-11-01T02:58:35.749Z,12.68
2022-11-01T03:01:39.692Z,12.02
2022-11-01T03:04:43.076Z,12.70
2022-11-01T03:07:50.713Z,13.27
2022-11-01T03:11:05.588Z,13.25
2022-11-01T03:14:34.666Z,11.50
2022-11-01T03:17:45.212Z,10.13
2022-11-01T03:20:54.747Z,13.20
2022-11-01T03:24:05.458Z,15.38
2022-11-01T03:27:12.494Z,14.90
2022-11-01T03:30:15.573Z,14.20
2022-11-01T03:33:18.922Z,13.77
2022-11-01T03:36:24.825Z,11.90
2022-11-01T03:39:32.293Z,12.30
2022-11-01T03:42:36.697Z,12.75
2022-11-01T03:45:40.514Z,13.35
2022-11-01T03:48:43.689Z,11.25
2022-11-01T03:51:46.965Z,17.62
2022-11-01T03:54:50.054Z,11.23
2022-11-01T03:57:57.719Z,12.75
2022-11-01T04:01:00.853Z,12.65
2022-11-01T04:04:04.790Z,11.40
2022-11-01T04:07:07.808Z,11.70
2022-11-01T04:10:12.314Z,8.70
2022-11-01T04:13:15.092Z,10.02
2022-11-01T04:16:36.626Z,9.23
2022-11-01T04:19:57.936Z,13.30
2022-11-01T04:23:01.897Z,13.30
2022-11-01T04:26:05.944Z,10.18
2022-11-01T04:29:09.073Z,11.85
2022-11-01T04:32:11.792Z,11.07
2022-11-01T04:35:14.975Z,10.85
2022-11-01T04:38:17.739Z,11.55
2022-11-01T04:41:22.616Z,11.80
2022-11-01T04:44:25.340Z,14.93
2022-11-01T04:47:28.350Z,12.00
2022-11-01T04:50:31.131Z,12.23
2022-11-01T04:53:35.708Z,12.90
2022-11-01T04:56:38.424Z,11.68
2022-11-01T04:59:41.440Z,13.55
2022-11-01T05:02:44.490Z,10.50
2022-11-01T05:05:47.807Z,11.50
2022-11-01T05:08:50.556Z,10.80
2022-11-01T05:11:53.554Z,13.25
2022-11-01T05:14:57.013Z,10.75
2022-11-01T05:18:01.970Z,10.88
2022-11-01T05:21:04.740Z,11.07
2022-11-01T05:24:08.583Z,10.48
2022-11-01T05:27:11.572Z,12.05
2022-11-01T05:30:15.863Z,14.35
2022-11-01T05:33:18.734Z,15.00
2022-11-01T05:36:23.081Z,12.32
2022-11-01T05:39:25.812Z,10.88
2022-11-01T05:42:28.879Z,11.80
2022-11-01T05:45:31.697Z,12.63
2022-11-01T05:48:35.143Z,11.80
2022-11-01T05:51:39.311Z,13.65
2022-11-01T05:54:42.323Z,12.13
2022-11-01T05:57:45.169Z,11.20
2022-11-01T06:00:48.246Z,13.05
2022-11-01T06:03:51.241Z,11.82
2022-11-01T06:06:54.255Z,13.35
2022-11-01T06:09:58.112Z,12.20
2022-11-01T06:13:01.095Z,11.38
2022-11-01T06:16:05.919Z,12.48
2022-11-01T06:19:09.712Z,14.93
2022-11-01T06:22:13.044Z,15.50
2022-11-01T06:25:16.012Z,10.93
2022-11-01T06:28:19.022Z,13.50
2022-11-01T06:31:22.282Z,10.10
2022-11-01T06:34:25.288Z,12.15
2022-11-01T06:37:28.026Z,14.98
2022-11-01T06:40:31.064Z,12.23
2022-11-01T06:43:33.806Z,12.07
2022-11-01T06:46:36.802Z,11.63
2022-11-01T06:49:40.816Z,12.68
2022-11-01T06:52:43.868Z,10.47
2022-11-01T06:55:46.910Z,10.65
2022-11-01T06:58:50.658Z,10.55
2022-11-01T07:01:54.662Z,11.15
2022-11-01T07:04:57.892Z,11.93
2022-11-01T07:08:01.309Z,12.98
2022-11-01T07:11:04.681Z,11.05
2022-11-01T07:14:07.401Z,10.68
2022-11-01T07:17:10.466Z,11.98
2022-11-01T07:20:13.220Z,11.80
2022-11-01T07:23:17.148Z,11.40
2022-11-01T07:26:20.784Z,9.80
2022-11-01T07:29:23.799Z,9.60
2022-11-01T07:32:27.712Z,11.07
2022-11-01T07:35:30.891Z,9.93
2022-11-01T07:38:34.877Z,11.48
2022-11-01T07:41:37.899Z,8.32
2022-11-01T07:44:45.399Z,10.88
2022-11-01T07:47:51.195Z,11.40
2022-11-01T07:50:58.759Z,8.27
2022-11-01T07:54:02.722Z,9.48
2022-11-01T07:57:05.516Z,9.45
2022-11-01T08:00:11.928Z,10.77
2022-11-01T08:03:16.735Z,10.05
2022-11-01T08:06:19.792Z,11.40
2022-11-01T08:09:22.859Z,9.13
2022-11-01T08:12:25.893Z,10.63
2022-11-01T08:15:35.695Z,10.45
2022-11-01T08:18:38.818Z,8.88
2022-11-01T08:21:41.680Z,10.05
2022-11-01T08:24:44.690Z,9.13
2022-11-01T08:27:47.524Z,8.50
2022-11-01T08:30:50.841Z,9.10
2022-11-01T08:33:54.319Z,7.97
2022-11-01T08:36:58.665Z,9.77
2022-11-01T08:40:01.458Z,10.77
2022-11-01T08:43:04.790Z,9.05
2022-11-01T08:46:07.870Z,7.07
2022-11-01T08:49:11.761Z,9.35
2022-11-01T08:52:14.507Z,6.65
2022-11-01T08:55:17.637Z,6.55
2022-11-01T08:58:20.748Z,7.60
2022-11-01T09:01:27.166Z,8.95
2022-11-01T09:04:30.031Z,8.98
2022-11-01T09:07:36.806Z,7.37
2022-11-01T09:10:39.367Z,9.60
2022-11-01T09:13:42.940Z,9.73
2022-11-01T09:16:45.635Z,8.27
2022-11-01T09:19:48.841Z,10.45
2022-11-01T09:22:55.152Z,12.10
2022-11-01T09:26:05.545Z,17.00
2022-11-01T09:29:08.571Z,13.10
2022-11-01T09:32:12.196Z,12.88
2022-11-01T09:35:15.064Z,11.60
2022-11-01T09:38:18.255Z,13.75
2022-11-01T09:41:20.966Z,11.48
2022-11-01T09:44:28.133Z,9.85
2022-11-01T09:47:31.234Z,13.77
2022-11-01T09:50:37.881Z,11.25
2022-11-01T09:53:41.485Z,12.02
2022-11-01T09:56:51.882Z,11.80
2022-11-01T10:00:01.744Z,11.90
2022-11-01T10:03:33.699Z,11.82
2022-11-01T10:06:40.092Z,11.88
2022-11-01T10:09:57.178Z,12.37
2022-11-01T10:13:11.181Z,11.25
2022-11-01T10:16:24.201Z,11.70
2022-11-01T10:19:32.872Z,13.88
2022-11-01T10:22:37.572Z,11.88
2022-11-01T10:28:51.262Z,15.10
2022-11-01T10:31:55.381Z,13.98
2022-11-01T10:35:05.839Z,14.10
2022-11-01T10:38:30.285Z,12.43
2022-11-01T10:41:43.704Z,13.62
2022-11-01T10:44:54.797Z,16.17
2022-11-01T10:47:58.501Z,13.32
2022-11-01T10:51:04.139Z,12.55
2022-11-01T10:54:13.630Z,13.02
2022-11-01T10:57:49.497Z,12.50
2022-11-01T11:00:53.023Z,15.65
2022-11-01T11:03:59.591Z,13.43
2022-11-01T11:07:02.427Z,13.52
2022-11-01T11:10:19.552Z,13.13
2022-11-01T11:13:26.794Z,13.45
2022-11-01T11:16:40.008Z,11.27
2022-11-01T11:19:46.297Z,13.27
2022-11-01T11:22:49.256Z,12.55
2022-11-01T11:25:52.189Z,14.23
2022-11-01T11:28:56.555Z,12.07
2022-11-01T11:32:00.710Z,16.60
2022-11-01T11:35:18.404Z,13.98
2022-11-01T11:38:41.094Z,16.83
2022-11-01T11:41:47.279Z,15.35
2022-11-01T11:44:55.662Z,14.43
2022-11-01T11:48:16.235Z,18.25
2022-11-01T11:51:21.430Z,18.67
2022-11-01T11:54:25.254Z,18.62
2022-11-01T11:57:30.331Z,16.75
2022-11-01T12:00:35.933Z,16.60
2022-11-01T12:04:08.138Z,19.10
2022-11-01T12:07:32.273Z,19.42
2022-11-01T12:10:39.470Z,14.90
2022-11-01T12:14:05.018Z,15.68
2022-11-01T12:17:34.402Z,16.20
2022-11-01T12:20:39.189Z,16.30
2022-11-01T12:23:42.696Z,16.97
2022-11-01T12:26:46.122Z,19.67
2022-11-01T12:29:56.538Z,19.73
2022-11-01T12:33:05.169Z,18.48
2022-11-01T12:36:10.621Z,17.30
2022-11-01T12:39:25.815Z,16.73
2022-11-01T12:42:33.053Z,18.05
2022-11-01T12:45:47.459Z,15.80
2022-11-01T12:48:58.342Z,19.02
2022-11-01T12:55:21.770Z,25.42
2022-11-01T12:58:24.981Z,20.95
2022-11-01T13:01:53.052Z,20.40
2022-11-01T13:05:11.912Z,21.25
2022-11-01T13:08:17.811Z,19.17
2022-11-01T13:11:39.045Z,20.55
2022-11-01T13:15:06.700Z,20.15
2022-11-01T13:18:21.840Z,21.02
2022-11-01T13:24:42.523Z,25.60
2022-11-01T13:28:03.927Z,23.12
2022-11-01T13:31:30.414Z,21.35
2022-11-01T13:35:11.069Z,20.37
2022-11-01T13:38:26.083Z,22.42
2022-11-01T13:41:40.204Z,23.17
2022-11-01T13:44:53.340Z,23.23
2022-11-01T13:48:06.427Z,23.23
2022-11-01T13:51:47.180Z,26.10
2022-11-01T13:55:05.495Z,26.05
2022-11-01T13:58:09.819Z,24.27
2022-11-01T14:01:35.776Z,24.17
2022-11-01T14:04:39.028Z,22.27
2022-11-01T14:07:45.016Z,22.67
2022-11-01T14:10:49.579Z,21.00
2022-11-01T14:13:52.314Z,18.07
2022-11-01T14:17:33.583Z,23.27
2022-11-01T14:20:40.812Z,26.85
2022-11-01T14:23:43.854Z,28.55
2022-11-01T14:26:58.676Z,22.35
2022-11-01T14:30:02.379Z,19.98
2022-11-01T14:33:05.383Z,24.37
2022-11-01T14:36:13.120Z,25.30
2022-11-01T14:39:27.746Z,21.87
2022-11-01T14:42:37.694Z,21.95
2022-11-01T14:45:45.013Z,26.83
2022-11-01T14:49:04.895Z,23.83
2022-11-01T14:52:18.185Z,24.70
2022-11-01T14:55:25.529Z,22.95
2022-11-01T14:58:29.665Z,22.33
2022-11-01T15:01:32.918Z,23.83
2022-11-01T15:04:44.466Z,22.83
2022-11-01T15:07:53.701Z,22.98
2022-11-01T15:10:58.710Z,19.92
2022-11-01T15:14:05.280Z,20.33
2022-11-01T15:17:19.274Z,21.30
2022-11-01T15:20:23.617Z,22.30
2022-11-01T15:23:34.281Z,21.40
2022-11-01T15:26:38.008Z,21.52
2022-11-01T15:29:42.863Z,24.67
2022-11-01T15:36:08.861Z,27.83
2022-11-01T15:39:30.195Z,24.25
2022-11-01T15:42:34.879Z,26.27
2022-11-01T15:45:38.803Z,21.85
2022-11-01T15:48:41.879Z,23.52
2022-11-01T15:51:54.753Z,23.27
2022-11-01T15:55:23.268Z,24.75
2022-11-01T15:58:32.248Z,31.75
2022-11-01T16:01:37.792Z,30.30
2022-11-01T16:04:44.628Z,30.55
2022-11-01T16:07:47.637Z,30.90
2022-11-01T16:10:50.924Z,30.75
2022-11-01T16:14:08.608Z,30.08
2022-11-01T16:17:25.827Z,34.95
2022-11-01T16:20:43.369Z,36.47
2022-11-01T16:23:58.653Z,31.20
2022-11-01T16:27:05.056Z,32.38
2022-11-01T16:30:35.178Z,31.73
2022-11-01T16:33:45.761Z,30.77
2022-11-01T16:36:49.242Z,38.13
2022-11-01T16:39:53.203Z,36.72
2022-11-01T16:42:59.108Z,36.97
2022-11-01T16:46:04.595Z,39.00
2022-11-01T16:49:19.335Z,33.80
2022-11-01T16:52:23.111Z,37.75
2022-11-01T16:55:28.485Z,35.83
2022-11-01T16:58:34.543Z,33.70
2022-11-01T17:01:38.282Z,39.83
2022-11-01T17:04:42.611Z,34.08
2022-11-01T17:07:46.371Z,39.05
2022-11-01T17:10:50.241Z,39.65
2022-11-01T17:13:53.395Z,37.67
2022-11-01T17:16:56.932Z,37.17
2022-11-01T17:20:04.267Z,34.75
2022-11-01T17:23:16.241Z,33.88
2022-11-01T17:26:20.137Z,33.03
2022-11-01T17:29:23.433Z,37.22
2022-11-01T17:32:27.193Z,36.03
2022-11-01T17:35:33.674Z,29.40
2022-11-01T17:38:37.523Z,35.20
2022-11-01T17:41:40.709Z,36.60
2022-11-01T17:44:45.034Z,41.25
2022-11-01T17:47:49.279Z,38.05
2022-11-01T17:50:53.902Z,32.92
2022-11-01T17:53:57.548Z,37.30
2022-11-01T17:57:01.066Z,33.10
2022-11-01T18:00:05.218Z,38.25
2022-11-01T18:03:15.613Z,35.67
2022-11-01T18:06:19.427Z,38.08
2022-11-01T18:09:25.741Z,34.47
2022-11-01T18:12:40.644Z,29.00
2022-11-01T18:16:07.453Z,30.37
2022-11-01T18:19:28.601Z,30.50
2022-11-01T18:22:51.281Z,29.35
2022-11-01T18:25:55.068Z,28.23
2022-11-01T18:29:01.088Z,24.40
2022-11-01T18:32:14.791Z,20.88
2022-11-01T18:35:56.095Z,24.08
2022-11-01T18:39:21.512Z,24.52
2022-11-01T18:42:26.044Z,22.30
2022-11-01T18:45:44.242Z,19.92
2022-11-01T18:49:00.674Z,20.40
2022-11-01T18:52:12.215Z,23.87
2022-11-01T18:55:15.621Z,21.00
2022-11-01T18:58:29.338Z,27.85
2022-11-01T19:01:33.775Z,25.58
2022-11-01T19:04:39.753Z,20.92
2022-11-01T19:08:09.723Z,22.30
2022-11-01T19:11:12.970Z,19.27
2022-11-01T19:14:20.755Z,16.37
2022-11-01T19:17:28.635Z,19.42
2022-11-01T19:20:36.329Z,17.52
2022-11-01T19:23:41.351Z,19.90
2022-11-01T19:29:53.991Z,19.75
2022-11-01T19:33:33.787Z,17.73
2022-11-01T19:39:49.241Z,18.73
2022-11-01T19:42:53.349Z,19.20
2022-11-01T19:45:58.472Z,23.98
2022-11-01T19:49:02.795Z,19.60
2022-11-01T19:52:09.244Z,16.00
2022-11-01T19:55:38.347Z,17.35
2022-11-01T19:58:52.598Z,20.27
2022-11-01T20:01:56.607Z,17.73
2022-11-01T20:05:00.749Z,19.10
2022-11-01T20:08:22.359Z,15.57
2022-11-01T20:11:28.811Z,16.40
2022-11-01T20:14:38.247Z,18.55
2022-11-01T20:17:41.850Z,15.05
2022-11-01T20:20:47.758Z,17.55
2022-11-01T20:23:52.148Z,15.77
2022-11-01T20:26:55.605Z,18.58
2022-11-01T20:30:02.790Z,17.92
2022-11-01T20:33:06.137Z,18.27
2022-11-01T20:36:11.528Z,20.02
2022-11-01T20:39:18.082Z,17.10
2022-11-01T20:42:23.158Z,19.15
2022-11-01T20:45:27.552Z,19.70
2022-11-01T20:48:33.037Z,18.77
2022-11-01T20:51:36.456Z,18.33
2022-11-01T20:54:40.153Z,17.90
2022-11-01T20:57:44.073Z,16.42
2022-11-01T21:00:47.847Z,16.00
2022-11-01T21:03:55.250Z,18.17
2022-11-01T21:06:58.937Z,19.42
2022-11-01T21:10:02.077Z,16.02
2022-11-01T21:13:34.532Z,15.93
2022-11-01T21:16:39.473Z,21.55
2022-11-01T21:22:46.392Z,15.25
2022-11-01T21:25:51.389Z,14.32
2022-11-01T21:28:56.186Z,20.37
2022-11-01T21:32:00.255Z,13.73
2022-11-01T21:35:33.867Z,21.05
2022-11-01T21:38:41.366Z,18.10
2022-11-01T21:41:45.909Z,14.48
2022-11-01T21:44:49.498Z,17.55
2022-11-01T21:47:52.591Z,13.77
2022-11-01T21:50:57.033Z,19.08
2022-11-01T21:54:03.300Z,16.92
2022-11-01T21:57:09.626Z,15.52
2022-11-01T22:00:15.548Z,16.92
2022-11-01T22:03:18.818Z,18.98
2022-11-01T22:06:21.429Z,18.92
2022-11-01T22:09:24.728Z,22.05
2022-11-01T22:12:27.434Z,14.85
2022-11-01T22:15:30.523Z,21.02
2022-11-01T22:18:33.291Z,14.45
2022-11-01T22:21:36.539Z,14.90
2022-11-01T22:24:39.570Z,18.98
2022-11-01T22:27:42.555Z,17.52
2022-11-01T22:30:45.259Z,18.95
2022-11-01T22:33:52.147Z,17.23
2022-11-01T22:36:55.074Z,16.60
2022-11-01T22:39:59.313Z,17.25
2022-11-01T22:43:03.523Z,15.18
2022-11-01T22:46:19.774Z,16.55
2022-11-01T22:49:23.341Z,14.85
2022-11-01T22:52:39.598Z,15.00
2022-11-01T22:55:44.895Z,15.63
2022-11-01T22:58:47.945Z,18.05
2022-11-01T23:01:58.341Z,16.80
2022-11-01T23:05:07.197Z,23.05
2022-11-01T23:08:37.000Z,18.75
2022-11-01T23:11:58.719Z,17.35
2022-11-01T23:15:01.397Z,17.67
2022-11-01T23:18:27.832Z,19.95
2022-11-01T23:24:33.655Z,16.75
2022-11-01T23:27:36.633Z,18.35
2022-11-01T23:30:41.713Z,20.62
2022-11-01T23:33:46.371Z,17.85
2022-11-01T23:36:49.705Z,19.85
2022-11-01T23:39:52.875Z,16.87
2022-11-01T23:42:56.087Z,18.15
2022-11-01T23:46:00.645Z,17.12
2022-11-01T23:49:15.918Z,20.05
2022-11-01T23:52:39.847Z,17.02
2022-11-01T23:55:48.182Z,18.42
2022-11-01T23:59:01.179Z,21.25
